Berit — ZDHX2 — position and weather

sailwx.info

Track history (hours):
 
Tides and Currents Weather Stations Pressure Air Temp Water Temp Dewpoint Dewpoint Depression Visibility Wind Speed Wind Dir Waves Ship Positions

Berit

Last reported at 2017-Mar-26 03:33 UTC. Time now 2017-Mar-26 03:40 UTC.
Position N 55°44' E 015°44'.

Length 83 m; draft 4.6 m.

Type: Cargo ship. MMSI: 236386000.

Date/timePositionNaut miles runAvg speedWind from/ knotsBaromVisibWave heightAir tempDewpointWater temp
2017-Mar-26 03:33N 55°44' E 015°44'10 9.9
2017-Mar-26 02:33N 55°40' E 015°29'21 9.8
2017-Mar-26 00:24N 55°29' E 014°56'8 9.9
2017-Mar-25 23:32N 55°25' E 014°43'9 9.4
2017-Mar-25 22:33N 55°19' E 014°32'10 9.5
2017-Mar-25 21:33N 55°12' E 014°20'48 9.6
2017-Mar-25 16:33N 55°14' E 012°56'10 9.7
2017-Mar-25 15:33N 55°17' E 012°40'9 8.6
2017-Mar-25 14:33N 55°26' E 012°40'9 9.2
2017-Mar-25 13:33N 55°35' E 012°42'9 8.7
2017-Mar-25 12:33N 55°44' E 012°41'9 9.3
2017-Mar-25 11:33N 55°53' E 012°39'9 9.4
2017-Mar-25 10:34N 56°02' E 012°38'88 9.3
2017-Mar-25 01:07N 57°21' E 011°29'5 9.5
2017-Mar-25 00:33N 57°26' E 011°23'10 9.6
2017-Mar-24 23:33N 57°32' E 011°10'1010.0
2017-Mar-24 22:33N 57°39' E 010°56'10 9.8
2017-Mar-24 21:32N 57°42' E 010°38'3 1.5
2017-Mar-24 19:18N 57°43' E 010°44'105 9.4
2017-Mar-24 08:10N 57°41' E 007°28'6 9.1
2017-Mar-24 07:33N 57°42' E 007°18'35 8.5
2017-Mar-24 03:30N 57°53' E 006°16'9 9.2
2017-Mar-24 02:33N 58°01' E 006°07'9 8.6
2017-Mar-24 01:33N 58°08' E 005°59'9 9.2
2017-Mar-24 00:33N 58°15' E 005°48'10 9.8
2017-Mar-23 23:33N 58°23' E 005°37'10 9.9
2017-Mar-23 22:33N 58°31' E 005°26'10 9.6
2017-Mar-23 21:33N 58°39' E 005°16'10 9.7
2017-Mar-23 20:33N 58°47' E 005°04'127 9.1
2017-Mar-23 06:33N 60°51' E 004°17'9 9.0
2017-Mar-23 05:33N 61°00' E 004°16'9 8.7
2017-Mar-23 04:33N 61°09' E 004°16'51 8.3
2017-Mar-22 22:27N 61°59' E 004°26'8 9.2
2017-Mar-22 21:33N 62°08' E 004°29'32 6.4
2017-Mar-22 16:32N 62°34' E 005°06'7 7.4
2017-Mar-22 15:33N 62°34' E 005°22'5 5.5
2017-Mar-22 14:33N 62°39' E 005°28'25 5.0
2017-Mar-22 09:33N 62°58' E 006°04'6 6.2
2017-Mar-22 08:33N 62°58' E 006°17'5 5.5
2017-Mar-22 07:33N 63°02' E 006°23'240 6.8
2017-Mar-20 20:33N 66°16' E 011°53'8 8.0
2017-Mar-20 19:33N 66°17' E 012°13'9 9.4
2017-Mar-20 18:33N 66°14' E 012°35'10 9.7
2017-Mar-20 17:33N 66°10' E 012°57'1010.5
2017-Mar-20 16:33N 66°14' E 013°20'10 9.9
2017-Mar-20 15:33N 66°15' E 013°45'9 9.2
2017-Mar-20 14:33N 66°18' E 014°06'0 0.4
2017-Mar-20 13:32N 66°18' E 014°07'0 0.0
2017-Mar-20 12:32N 66°18' E 014°07'0 0.0
2017-Mar-20 11:32N 66°18' E 014°07'0 0.0
2017-Mar-20 10:29N 66°18' E 014°07'0 0.0
2017-Mar-20 09:32N 66°18' E 014°07'0 0.0
2017-Mar-20 08:32N 66°18' E 014°07'0 0.0
2017-Mar-20 07:32N 66°18' E 014°07'0 0.0
2017-Mar-20 06:32N 66°18' E 014°07'0 0.0
2017-Mar-20 05:32N 66°18' E 014°07'0 0.0
2017-Mar-20 04:32N 66°18' E 014°07'0 0.0
2017-Mar-20 03:29N 66°18' E 014°07'0 0.0
2017-Mar-20 02:32N 66°18' E 014°07'0 0.0
2017-Mar-20 01:32N 66°18' E 014°07'0 0.0
2017-Mar-20 00:32N 66°18' E 014°07'0 0.0
2017-Mar-19 23:32N 66°18' E 014°07'0 0.0
2017-Mar-19 22:32N 66°18' E 014°07'0 0.0
2017-Mar-19 21:32N 66°18' E 014°07'0 0.0
2017-Mar-19 20:32N 66°18' E 014°07'0 0.0
2017-Mar-19 19:32N 66°18' E 014°07'0 0.0
2017-Mar-19 18:32N 66°18' E 014°07'0 0.0
2017-Mar-19 17:32N 66°18' E 014°07'0 0.0
2017-Mar-19 16:29N 66°18' E 014°07'0 0.0
2017-Mar-19 15:23N 66°18' E 014°07'0 0.0
2017-Mar-19 14:32N 66°18' E 014°07'0 0.0
2017-Mar-19 13:32N 66°18' E 014°07'0 0.0
2017-Mar-19 12:32N 66°18' E 014°07'0 0.0
2017-Mar-19 11:32N 66°18' E 014°07'0 0.0
2017-Mar-19 10:32N 66°18' E 014°07'0 0.0
2017-Mar-19 09:32N 66°18' E 014°07'0 0.0
2017-Mar-19 08:32N 66°18' E 014°07'0 0.0
2017-Mar-19 07:32N 66°18' E 014°07'0 0.0
2017-Mar-19 06:32N 66°18' E 014°07'0 0.0
2017-Mar-19 05:32N 66°18' E 014°07'0 0.0
2017-Mar-19 04:32N 66°18' E 014°07'0 0.0
2017-Mar-19 03:32N 66°18' E 014°07'0 0.0
2017-Mar-19 02:32N 66°18' E 014°07'0 0.0
2017-Mar-19 01:32N 66°18' E 014°07'0 0.0
2017-Mar-19 00:32N 66°18' E 014°07'0 0.0
2017-Mar-18 23:32N 66°18' E 014°07'0 0.0
2017-Mar-18 22:32N 66°18' E 014°07'0 0.0
2017-Mar-18 21:32N 66°18' E 014°07'0 0.0
2017-Mar-18 20:32N 66°18' E 014°07'0 0.0
2017-Mar-18 19:32N 66°18' E 014°07'0 0.0
2017-Mar-18 18:32N 66°18' E 014°07'0 0.0
2017-Mar-18 17:32N 66°18' E 014°07'0 0.0
2017-Mar-18 16:32N 66°18' E 014°07'0 0.0
2017-Mar-18 15:32N 66°18' E 014°07'0 0.0
2017-Mar-18 14:32N 66°18' E 014°07'0 0.0
2017-Mar-18 13:32N 66°18' E 014°07'0 0.0
2017-Mar-18 12:32N 66°18' E 014°07'0 0.0
2017-Mar-18 11:32N 66°18' E 014°07'0 0.0
2017-Mar-18 10:32N 66°18' E 014°07'0 0.0
2017-Mar-18 09:32N 66°18' E 014°07'0 0.0
2017-Mar-18 08:32N 66°18' E 014°07'0 0.0
2017-Mar-18 07:32N 66°18' E 014°07'0 0.0
2017-Mar-18 06:32N 66°18' E 014°07'0 0.0
2017-Mar-18 05:32N 66°18' E 014°07'0 0.0
2017-Mar-18 04:32N 66°18' E 014°07'0 0.0
2017-Mar-18 03:32N 66°18' E 014°07'0 0.0
2017-Mar-18 02:32N 66°18' E 014°07'0 0.0
2017-Mar-18 01:32N 66°18' E 014°07'0 0.0
2017-Mar-18 00:32N 66°18' E 014°07'0 0.0
2017-Mar-17 23:32N 66°18' E 014°07'0 0.0
2017-Mar-17 22:32N 66°18' E 014°07'0 0.0
2017-Mar-17 21:32N 66°18' E 014°07'0 0.0
2017-Mar-17 20:32N 66°18' E 014°07'0 0.0
2017-Mar-17 19:32N 66°18' E 014°07'0 0.0
2017-Mar-17 18:32N 66°18' E 014°07'0 0.0
2017-Mar-17 17:32N 66°18' E 014°07'0 0.0
2017-Mar-17 16:32N 66°18' E 014°07'0 0.0
2017-Mar-17 15:32N 66°18' E 014°07'0 0.1
2017-Mar-17 14:32N 66°18' E 014°07'0 0.0
2017-Mar-17 13:32N 66°18' E 014°07'0 0.0
2017-Mar-17 12:32N 66°18' E 014°07'0 0.0
2017-Mar-17 11:32N 66°18' E 014°07'0 0.0
2017-Mar-17 10:32N 66°18' E 014°07'0 0.0
2017-Mar-17 09:32N 66°18' E 014°07'0 0.0
2017-Mar-17 08:29N 66°18' E 014°07'0 0.0
2017-Mar-17 07:32N 66°18' E 014°07'0 0.0
2017-Mar-17 06:32N 66°18' E 014°07'0 0.0
2017-Mar-17 05:32N 66°18' E 014°07'0 0.0
2017-Mar-17 04:32N 66°18' E 014°07'0 0.0
2017-Mar-17 03:32N 66°18' E 014°07'0 0.0
2017-Mar-17 02:32N 66°18' E 014°07'0 0.0
2017-Mar-17 01:32N 66°18' E 014°07'0 0.0
2017-Mar-17 00:32N 66°18' E 014°07'0 0.0
2017-Mar-16 23:32N 66°18' E 014°07'1 0.7
2017-Mar-16 22:32N 66°18' E 014°05'9 8.9
2017-Mar-16 21:32N 66°15' E 013°45'9 8.8
2017-Mar-16 20:33N 66°14' E 013°23'9 8.7
2017-Mar-16 19:33N 66°10' E 013°04'9 8.7
2017-Mar-16 18:33N 66°12' E 012°43'9 8.9
2017-Mar-16 17:33N 66°16' E 012°22'9 9.3
2017-Mar-16 16:33N 66°16' E 011°59'  
Track history (hours):
 
Tides and Currents Weather Stations Pressure Air Temp Water Temp Dewpoint Dewpoint Depression Visibility Wind Speed Wind Dir Waves Ship Positions

Berit

Last reported at 2017-Mar-26 03:33 UTC. Time now 2017-Mar-26 03:40 UTC.
Position N 55°44' E 015°44'.

Length 83 m; draft 4.6 m.

Type: Cargo ship. MMSI: 236386000.

Date/timePositionNaut miles runAvg speedWind from/ knotsBaromVisibWave heightAir tempDewpointWater temp
2017-Mar-26 03:33N 55°44' E 015°44'10 9.9
2017-Mar-26 02:33N 55°40' E 015°29'21 9.8
2017-Mar-26 00:24N 55°29' E 014°56'8 9.9
2017-Mar-25 23:32N 55°25' E 014°43'9 9.4
2017-Mar-25 22:33N 55°19' E 014°32'10 9.5
2017-Mar-25 21:33N 55°12' E 014°20'48 9.6
2017-Mar-25 16:33N 55°14' E 012°56'10 9.7
2017-Mar-25 15:33N 55°17' E 012°40'9 8.6
2017-Mar-25 14:33N 55°26' E 012°40'9 9.2
2017-Mar-25 13:33N 55°35' E 012°42'9 8.7
2017-Mar-25 12:33N 55°44' E 012°41'9 9.3
2017-Mar-25 11:33N 55°53' E 012°39'9 9.4
2017-Mar-25 10:34N 56°02' E 012°38'88 9.3
2017-Mar-25 01:07N 57°21' E 011°29'5 9.5
2017-Mar-25 00:33N 57°26' E 011°23'10 9.6
2017-Mar-24 23:33N 57°32' E 011°10'1010.0
2017-Mar-24 22:33N 57°39' E 010°56'10 9.8
2017-Mar-24 21:32N 57°42' E 010°38'3 1.5
2017-Mar-24 19:18N 57°43' E 010°44'105 9.4
2017-Mar-24 08:10N 57°41' E 007°28'6 9.1
2017-Mar-24 07:33N 57°42' E 007°18'35 8.5
2017-Mar-24 03:30N 57°53' E 006°16'9 9.2
2017-Mar-24 02:33N 58°01' E 006°07'9 8.6
2017-Mar-24 01:33N 58°08' E 005°59'9 9.2
2017-Mar-24 00:33N 58°15' E 005°48'10 9.8
2017-Mar-23 23:33N 58°23' E 005°37'10 9.9
2017-Mar-23 22:33N 58°31' E 005°26'10 9.6
2017-Mar-23 21:33N 58°39' E 005°16'10 9.7
2017-Mar-23 20:33N 58°47' E 005°04'127 9.1
2017-Mar-23 06:33N 60°51' E 004°17'9 9.0
2017-Mar-23 05:33N 61°00' E 004°16'9 8.7
2017-Mar-23 04:33N 61°09' E 004°16'51 8.3
2017-Mar-22 22:27N 61°59' E 004°26'8 9.2
2017-Mar-22 21:33N 62°08' E 004°29'32 6.4
2017-Mar-22 16:32N 62°34' E 005°06'7 7.4
2017-Mar-22 15:33N 62°34' E 005°22'5 5.5
2017-Mar-22 14:33N 62°39' E 005°28'25 5.0
2017-Mar-22 09:33N 62°58' E 006°04'6 6.2
2017-Mar-22 08:33N 62°58' E 006°17'5 5.5
2017-Mar-22 07:33N 63°02' E 006°23'240 6.8
2017-Mar-20 20:33N 66°16' E 011°53'8 8.0
2017-Mar-20 19:33N 66°17' E 012°13'9 9.4
2017-Mar-20 18:33N 66°14' E 012°35'10 9.7
2017-Mar-20 17:33N 66°10' E 012°57'1010.5
2017-Mar-20 16:33N 66°14' E 013°20'10 9.9
2017-Mar-20 15:33N 66°15' E 013°45'9 9.2
2017-Mar-20 14:33N 66°18' E 014°06'0 0.4
2017-Mar-20 13:32N 66°18' E 014°07'0 0.0
2017-Mar-20 12:32N 66°18' E 014°07'0 0.0
2017-Mar-20 11:32N 66°18' E 014°07'0 0.0
2017-Mar-20 10:29N 66°18' E 014°07'0 0.0
2017-Mar-20 09:32N 66°18' E 014°07'0 0.0
2017-Mar-20 08:32N 66°18' E 014°07'0 0.0
2017-Mar-20 07:32N 66°18' E 014°07'0 0.0
2017-Mar-20 06:32N 66°18' E 014°07'0 0.0
2017-Mar-20 05:32N 66°18' E 014°07'0 0.0
2017-Mar-20 04:32N 66°18' E 014°07'0 0.0
2017-Mar-20 03:29N 66°18' E 014°07'0 0.0
2017-Mar-20 02:32N 66°18' E 014°07'0 0.0
2017-Mar-20 01:32N 66°18' E 014°07'0 0.0
2017-Mar-20 00:32N 66°18' E 014°07'0 0.0
2017-Mar-19 23:32N 66°18' E 014°07'0 0.0
2017-Mar-19 22:32N 66°18' E 014°07'0 0.0
2017-Mar-19 21:32N 66°18' E 014°07'0 0.0
2017-Mar-19 20:32N 66°18' E 014°07'0 0.0
2017-Mar-19 19:32N 66°18' E 014°07'0 0.0
2017-Mar-19 18:32N 66°18' E 014°07'0 0.0
2017-Mar-19 17:32N 66°18' E 014°07'0 0.0
2017-Mar-19 16:29N 66°18' E 014°07'0 0.0
2017-Mar-19 15:23N 66°18' E 014°07'0 0.0
2017-Mar-19 14:32N 66°18' E 014°07'0 0.0
2017-Mar-19 13:32N 66°18' E 014°07'0 0.0
2017-Mar-19 12:32N 66°18' E 014°07'0 0.0
2017-Mar-19 11:32N 66°18' E 014°07'0 0.0
2017-Mar-19 10:32N 66°18' E 014°07'0 0.0
2017-Mar-19 09:32N 66°18' E 014°07'0 0.0
2017-Mar-19 08:32N 66°18' E 014°07'0 0.0
2017-Mar-19 07:32N 66°18' E 014°07'0 0.0
2017-Mar-19 06:32N 66°18' E 014°07'0 0.0
2017-Mar-19 05:32N 66°18' E 014°07'0 0.0
2017-Mar-19 04:32N 66°18' E 014°07'0 0.0
2017-Mar-19 03:32N 66°18' E 014°07'0 0.0
2017-Mar-19 02:32N 66°18' E 014°07'0 0.0
2017-Mar-19 01:32N 66°18' E 014°07'0 0.0
2017-Mar-19 00:32N 66°18' E 014°07'0 0.0
2017-Mar-18 23:32N 66°18' E 014°07'0 0.0
2017-Mar-18 22:32N 66°18' E 014°07'0 0.0
2017-Mar-18 21:32N 66°18' E 014°07'0 0.0
2017-Mar-18 20:32N 66°18' E 014°07'0 0.0
2017-Mar-18 19:32N 66°18' E 014°07'0 0.0
2017-Mar-18 18:32N 66°18' E 014°07'0 0.0
2017-Mar-18 17:32N 66°18' E 014°07'0 0.0
2017-Mar-18 16:32N 66°18' E 014°07'0 0.0
2017-Mar-18 15:32N 66°18' E 014°07'0 0.0
2017-Mar-18 14:32N 66°18' E 014°07'0 0.0
2017-Mar-18 13:32N 66°18' E 014°07'0 0.0
2017-Mar-18 12:32N 66°18' E 014°07'0 0.0
2017-Mar-18 11:32N 66°18' E 014°07'0 0.0
2017-Mar-18 10:32N 66°18' E 014°07'0 0.0
2017-Mar-18 09:32N 66°18' E 014°07'0 0.0
2017-Mar-18 08:32N 66°18' E 014°07'0 0.0
2017-Mar-18 07:32N 66°18' E 014°07'0 0.0
2017-Mar-18 06:32N 66°18' E 014°07'0 0.0
2017-Mar-18 05:32N 66°18' E 014°07'0 0.0
2017-Mar-18 04:32N 66°18' E 014°07'0 0.0
2017-Mar-18 03:32N 66°18' E 014°07'0 0.0
2017-Mar-18 02:32N 66°18' E 014°07'0 0.0
2017-Mar-18 01:32N 66°18' E 014°07'0 0.0
2017-Mar-18 00:32N 66°18' E 014°07'0 0.0
2017-Mar-17 23:32N 66°18' E 014°07'0 0.0
2017-Mar-17 22:32N 66°18' E 014°07'0 0.0
2017-Mar-17 21:32N 66°18' E 014°07'0 0.0
2017-Mar-17 20:32N 66°18' E 014°07'0 0.0
2017-Mar-17 19:32N 66°18' E 014°07'0 0.0
2017-Mar-17 18:32N 66°18' E 014°07'0 0.0
2017-Mar-17 17:32N 66°18' E 014°07'0 0.0
2017-Mar-17 16:32N 66°18' E 014°07'0 0.0
2017-Mar-17 15:32N 66°18' E 014°07'0 0.1
2017-Mar-17 14:32N 66°18' E 014°07'0 0.0
2017-Mar-17 13:32N 66°18' E 014°07'0 0.0
2017-Mar-17 12:32N 66°18' E 014°07'0 0.0
2017-Mar-17 11:32N 66°18' E 014°07'0 0.0
2017-Mar-17 10:32N 66°18' E 014°07'0 0.0
2017-Mar-17 09:32N 66°18' E 014°07'0 0.0
2017-Mar-17 08:29N 66°18' E 014°07'0 0.0
2017-Mar-17 07:32N 66°18' E 014°07'0 0.0
2017-Mar-17 06:32N 66°18' E 014°07'0 0.0
2017-Mar-17 05:32N 66°18' E 014°07'0 0.0
2017-Mar-17 04:32N 66°18' E 014°07'0 0.0
2017-Mar-17 03:32N 66°18' E 014°07'0 0.0
2017-Mar-17 02:32N 66°18' E 014°07'0 0.0
2017-Mar-17 01:32N 66°18' E 014°07'0 0.0
2017-Mar-17 00:32N 66°18' E 014°07'0 0.0
2017-Mar-16 23:32N 66°18' E 014°07'1 0.7
2017-Mar-16 22:32N 66°18' E 014°05'9 8.9
2017-Mar-16 21:32N 66°15' E 013°45'9 8.8
2017-Mar-16 20:33N 66°14' E 013°23'9 8.7
2017-Mar-16 19:33N 66°10' E 013°04'9 8.7
2017-Mar-16 18:33N 66°12' E 012°43'9 8.9
2017-Mar-16 17:33N 66°16' E 012°22'9 9.3
2017-Mar-16 16:33N 66°16' E 011°59'  

Dump ship's entire track history